sensor_id;sensor_type;location;lat;lon;timestamp;pressure;altitude;pressure_sealevel;temperature;humidity
63819;BME280;49970;54.976;73.248;2023-03-24T00:01:24;100934.44;;;-4.15;85.63
63819;BME280;49970;54.976;73.248;2023-03-24T00:04:01;100931.00;;;-4.18;84.98
63819;BME280;49970;54.976;73.248;2023-03-24T00:06:28;100934.44;;;-4.22;85.26
63819;BME280;49970;54.976;73.248;2023-03-24T00:08:59;100937.03;;;-4.24;85.11
63819;BME280;49970;54.976;73.248;2023-03-24T00:11:28;100931.88;;;-4.29;85.61
63819;BME280;49970;54.976;73.248;2023-03-24T00:13:55;100937.03;;;-4.32;84.76
63819;BME280;49970;54.976;73.248;2023-03-24T00:16:23;100945.66;;;-4.37;84.96
63819;BME280;49970;54.976;73.248;2023-03-24T00:18:50;100928.44;;;-4.60;84.21
63819;BME280;49970;54.976;73.248;2023-03-24T00:21:18;100946.50;;;-4.66;84.39
63819;BME280;49970;54.976;73.248;2023-03-24T00:23:50;100943.03;;;-4.79;85.11
63819;BME280;49970;54.976;73.248;2023-03-24T00:26:20;100954.25;;;-4.83;84.59
63819;BME280;49970;54.976;73.248;2023-03-24T00:28:47;100950.78;;;-4.88;85.36
63819;BME280;49970;54.976;73.248;2023-03-24T00:31:25;100943.00;;;-5.02;84.96
63819;BME280;49970;54.976;73.248;2023-03-24T00:33:56;100944.72;;;-5.08;85.23
63819;BME280;49970;54.976;73.248;2023-03-24T00:36:28;100949.00;;;-5.09;85.56
63819;BME280;49970;54.976;73.248;2023-03-24T00:38:55;100949.03;;;-5.01;85.95
63819;BME280;49970;54.976;73.248;2023-03-24T00:41:23;100954.22;;;-4.87;85.97
63819;BME280;49970;54.976;73.248;2023-03-24T00:44:02;100946.50;;;-4.75;85.35
63819;BME280;49970;54.976;73.248;2023-03-24T00:46:30;100948.25;;;-4.68;84.93
63819;BME280;49970;54.976;73.248;2023-03-24T00:49:06;100949.97;;;-4.76;84.79
63819;BME280;49970;54.976;73.248;2023-03-24T00:51:38;100955.13;;;-4.74;85.08
63819;BME280;49970;54.976;73.248;2023-03-24T00:54:06;100947.38;;;-4.70;85.44
63819;BME280;49970;54.976;73.248;2023-03-24T00:56:38;100948.22;;;-4.65;85.32
63819;BME280;49970;54.976;73.248;2023-03-24T00:59:06;100948.25;;;-4.59;85.39
63819;BME280;49970;54.976;73.248;2023-03-24T01:01:34;100952.56;;;-4.58;84.85
63819;BME280;49970;54.976;73.248;2023-03-24T01:04:05;100955.97;;;-4.56;85.23
63819;BME280;49970;54.976;73.248;2023-03-24T01:06:32;100954.28;;;-4.57;85.03
63819;BME280;49970;54.976;73.248;2023-03-24T01:09:01;100955.97;;;-4.56;84.89
63819;BME280;49970;54.976;73.248;2023-03-24T01:11:27;100954.28;;;-4.57;84.71
63819;BME280;49970;54.976;73.248;2023-03-24T01:13:59;100955.13;;;-4.56;84.92
63819;BME280;49970;54.976;73.248;2023-03-24T01:16:29;100955.97;;;-4.56;85.18
63819;BME280;49970;54.976;73.248;2023-03-24T01:18:56;100946.53;;;-4.54;84.78
63819;BME280;49970;54.976;73.248;2023-03-24T01:21:26;100954.28;;;-4.52;85.19
63819;BME280;49970;54.976;73.248;2023-03-24T01:23:57;100949.09;;;-4.52;84.86
63819;BME280;49970;54.976;73.248;2023-03-24T01:26:24;100949.97;;;-4.50;84.35
63819;BME280;49970;54.976;73.248;2023-03-24T01:28:51;100948.25;;;-4.53;84.79
63819;BME280;49970;54.976;73.248;2023-03-24T01:31:17;100949.97;;;-4.52;85.03
63819;BME280;49970;54.976;73.248;2023-03-24T01:33:43;100953.44;;;-4.51;84.22
63819;BME280;49970;54.976;73.248;2023-03-24T01:36:10;100945.69;;;-4.51;84.93
63819;BME280;49970;54.976;73.248;2023-03-24T01:38:43;100947.38;;;-4.53;85.29
63819;BME280;49970;54.976;73.248;2023-03-24T01:41:09;100954.28;;;-4.55;84.06
63819;BME280;49970;54.976;73.248;2023-03-24T01:43:35;100962.88;;;-4.56;84.92
63819;BME280;49970;54.976;73.248;2023-03-24T01:46:16;100949.09;;;-4.57;85.16
63819;BME280;49970;54.976;73.248;2023-03-24T01:49:05;100955.16;;;-4.59;84.61
63819;BME280;49970;54.976;73.248;2023-03-24T01:51:36;100953.41;;;-4.65;84.41
63819;BME280;49970;54.976;73.248;2023-03-24T01:54:12;100962.03;;;-4.66;84.16
63819;BME280;49970;54.976;73.248;2023-03-24T01:56:52;100954.25;;;-4.69;84.67
63819;BME280;49970;54.976;73.248;2023-03-24T01:59:23;100958.56;;;-4.71;84.38
63819;BME280;49970;54.976;73.248;2023-03-24T02:02:12;100974.91;;;-4.73;84.66
63819;BME280;49970;54.976;73.248;2023-03-24T02:04:56;100962.00;;;-4.75;83.53
63819;BME280;49970;54.976;73.248;2023-03-24T02:10:06;100955.13;;;-4.76;84.46
63819;BME280;49970;54.976;73.248;2023-03-24T02:12:33;100973.22;;;-4.76;83.84
63819;BME280;49970;54.976;73.248;2023-03-24T02:15:13;100963.75;;;-4.76;84.29
63819;BME280;49970;54.976;73.248;2023-03-24T02:18:14;100966.31;;;-4.72;83.92
63819;BME280;49970;54.976;73.248;2023-03-24T02:23:54;100969.75;;;-4.69;83.66
63819;BME280;49970;54.976;73.248;2023-03-24T02:26:39;100962.88;;;-4.65;84.45
63819;BME280;49970;54.976;73.248;2023-03-24T02:35:12;100967.19;;;-4.57;83.59
63819;BME280;49970;54.976;73.248;2023-03-24T02:41:05;100981.00;;;-4.45;84.01
63819;BME280;49970;54.976;73.248;2023-03-24T02:46:32;100975.81;;;-4.35;83.68
63819;BME280;49970;54.976;73.248;2023-03-24T02:52:22;100986.19;;;-4.18;83.52
63819;BME280;49970;54.976;73.248;2023-03-24T02:55:05;100985.31;;;-4.15;83.56
63819;BME280;49970;54.976;73.248;2023-03-24T02:57:50;100983.59;;;-4.03;82.83
63819;BME280;49970;54.976;73.248;2023-03-24T03:00:57;100979.28;;;-3.91;82.89
63819;BME280;49970;54.976;73.248;2023-03-24T03:03:50;100976.66;;;-3.78;82.59
63819;BME280;49970;54.976;73.248;2023-03-24T03:06:32;100977.50;;;-3.59;82.64
63819;BME280;49970;54.976;73.248;2023-03-24T03:09:03;100986.06;;;-3.41;82.12
63819;BME280;49970;54.976;73.248;2023-03-24T03:11:31;100981.72;;;-3.29;81.85
63819;BME280;49970;54.976;73.248;2023-03-24T03:14:01;100973.88;;;-3.18;81.26
63819;BME280;49970;54.976;73.248;2023-03-24T03:16:53;100975.53;;;-3.00;81.00
63819;BME280;49970;54.976;73.248;2023-03-24T03:19:31;100987.56;;;-2.84;81.14
63819;BME280;49970;54.976;73.248;2023-03-24T03:22:17;100977.09;;;-2.73;80.74
63819;BME280;49970;54.976;73.248;2023-03-24T03:24:48;100977.91;;;-2.60;80.42
63819;BME280;49970;54.976;73.248;2023-03-24T03:27:23;100970.88;;;-2.44;80.20
63819;BME280;49970;54.976;73.248;2023-03-24T03:30:07;100969.06;;;-2.33;79.04
63819;BME280;49970;54.976;73.248;2023-03-24T03:32:41;100970.72;;;-2.24;78.71
63819;BME280;49970;54.976;73.248;2023-03-24T03:35:28;100981.84;;;-2.09;78.59
63819;BME280;49970;54.976;73.248;2023-03-24T03:40:51;100985.16;;;-1.91;77.93
63819;BME280;49970;54.976;73.248;2023-03-24T03:43:24;100984.22;;;-1.86;77.42
63819;BME280;49970;54.976;73.248;2023-03-24T03:45:53;100979.88;;;-1.82;77.22
63819;BME280;49970;54.976;73.248;2023-03-24T03:48:23;100982.41;;;-1.78;77.46
63819;BME280;49970;54.976;73.248;2023-03-24T03:50:55;100976.38;;;-1.78;76.74
63819;BME280;49970;54.976;73.248;2023-03-24T03:53:26;100976.38;;;-1.78;76.96
63819;BME280;49970;54.976;73.248;2023-03-24T03:55:53;100979.84;;;-1.79;76.70
63819;BME280;49970;54.976;73.248;2023-03-24T03:58:22;100982.41;;;-1.74;76.92
63819;BME280;49970;54.976;73.248;2023-03-24T04:01:05;100985.88;;;-1.76;76.46
63819;BME280;49970;54.976;73.248;2023-03-24T04:06:38;100991.72;;;-1.57;76.59
63819;BME280;49970;54.976;73.248;2023-03-24T04:15:54;100980.97;;;-1.26;76.63
63819;BME280;49970;54.976;73.248;2023-03-24T04:18:52;100969.63;;;-1.16;76.55
63819;BME280;49970;54.976;73.248;2023-03-24T04:21:39;100972.13;;;-1.08;76.10
63819;BME280;49970;54.976;73.248;2023-03-24T04:27:08;100979.78;;;-0.96;76.10
63819;BME280;49970;54.976;73.248;2023-03-24T04:32:58;100976.09;;;-0.81;75.23
63819;BME280;49970;54.976;73.248;2023-03-24T04:35:36;100974.31;;;-0.78;75.55
63819;BME280;49970;54.976;73.248;2023-03-24T04:38:38;100967.19;;;-0.65;75.59
63819;BME280;49970;54.976;73.248;2023-03-24T04:41:34;100976.56;;;-0.55;75.28
63819;BME280;49970;54.976;73.248;2023-03-24T04:44:22;100968.75;;;-0.53;75.52
63819;BME280;49970;54.976;73.248;2023-03-24T04:47:14;100984.16;;;-0.39;75.60
63819;BME280;49970;54.976;73.248;2023-03-24T04:50:06;100969.31;;;-0.33;75.09
63819;BME280;49970;54.976;73.248;2023-03-24T04:52:41;100962.31;;;-0.29;75.18
63819;BME280;49970;54.976;73.248;2023-03-24T04:58:03;100971.81;;;-0.27;75.46
63819;BME280;49970;54.976;73.248;2023-03-24T05:00:29;100956.16;;;-0.23;75.04
63819;BME280;49970;54.976;73.248;2023-03-24T05:03:05;100960.22;;;-0.09;75.38
63819;BME280;49970;54.976;73.248;2023-03-24T05:05:32;100959.22;;;0.00;75.54
63819;BME280;49970;54.976;73.248;2023-03-24T05:07:58;100964.31;;;0.06;74.64
63819;BME280;49970;54.976;73.248;2023-03-24T05:10:25;100953.78;;;0.12;74.97
63819;BME280;49970;54.976;73.248;2023-03-24T05:12:56;100958.84;;;0.21;75.29
63819;BME280;49970;54.976;73.248;2023-03-24T05:15:30;100950.03;;;0.27;75.30
63819;BME280;49970;54.976;73.248;2023-03-24T05:18:11;100945.59;;;0.32;74.81
63819;BME280;49970;54.976;73.248;2023-03-24T05:20:38;100952.38;;;0.42;74.77
63819;BME280;49970;54.976;73.248;2023-03-24T05:23:15;100953.13;;;0.47;74.82
63819;BME280;49970;54.976;73.248;2023-03-24T05:25:45;100953.03;;;0.52;74.89
63819;BME280;49970;54.976;73.248;2023-03-24T05:28:12;100948.69;;;0.53;74.06
63819;BME280;49970;54.976;73.248;2023-03-24T05:30:38;100958.97;;;0.60;74.05
63819;BME280;49970;54.976;73.248;2023-03-24T05:33:16;100950.25;;;0.63;73.90
63819;BME280;49970;54.976;73.248;2023-03-24T05:35:42;100952.00;;;0.61;74.06
63819;BME280;49970;54.976;73.248;2023-03-24T05:38:09;100951.91;;;0.65;74.08
63819;BME280;49970;54.976;73.248;2023-03-24T05:40:47;100950.16;;;0.66;73.74
63819;BME280;49970;54.976;73.248;2023-03-24T05:43:16;100942.28;;;0.69;73.73
63819;BME280;49970;54.976;73.248;2023-03-24T05:46:00;100942.22;;;0.72;74.08
63819;BME280;49970;54.976;73.248;2023-03-24T05:48:30;100936.22;;;0.68;73.39
63819;BME280;49970;54.976;73.248;2023-03-24T05:51:12;100940.56;;;0.68;73.45
63819;BME280;49970;54.976;73.248;2023-03-24T05:53:59;100930.06;;;0.71;73.62
63819;BME280;49970;54.976;73.248;2023-03-24T05:57:37;100929.25;;;0.69;73.47
63819;BME280;49970;54.976;73.248;2023-03-24T06:00:46;100925.53;;;0.79;72.83
63819;BME280;49970;54.976;73.248;2023-03-24T06:04:29;100923.69;;;0.86;72.85
63819;BME280;49970;54.976;73.248;2023-03-24T06:07:21;100924.38;;;0.94;72.86
63819;BME280;49970;54.976;73.248;2023-03-24T06:11:01;100919.91;;;1.01;72.49
63819;BME280;49970;54.976;73.248;2023-03-24T06:13:31;100914.69;;;1.01;72.51
63819;BME280;49970;54.976;73.248;2023-03-24T06:15:59;100907.59;;;1.06;72.87
63819;BME280;49970;54.976;73.248;2023-03-24T06:18:35;100909.31;;;1.07;72.72
63819;BME280;49970;54.976;73.248;2023-03-24T06:21:11;100911.78;;;1.13;71.84
63819;BME280;49970;54.976;73.248;2023-03-24T06:23:40;100908.31;;;1.12;71.76
63819;BME280;49970;54.976;73.248;2023-03-24T06:26:10;100910.78;;;1.18;71.40
63819;BME280;49970;54.976;73.248;2023-03-24T06:29:03;100894.19;;;1.21;70.88
63819;BME280;49970;54.976;73.248;2023-03-24T06:31:33;100907.16;;;1.24;71.27
63819;BME280;49970;54.976;73.248;2023-03-24T06:34:05;100913.94;;;1.33;71.25
63819;BME280;49970;54.976;73.248;2023-03-24T06:36:31;100912.97;;;1.37;70.83
63819;BME280;49970;54.976;73.248;2023-03-24T06:39:01;100903.47;;;1.34;70.31
63819;BME280;49970;54.976;73.248;2023-03-24T06:41:28;100896.44;;;1.36;70.32
63819;BME280;49970;54.976;73.248;2023-03-24T06:44:18;100901.59;;;1.39;70.41
63819;BME280;49970;54.976;73.248;2023-03-24T06:47:53;100902.28;;;1.46;70.47
63819;BME280;49970;54.976;73.248;2023-03-24T06:50:23;100902.22;;;1.51;69.94
63819;BME280;49970;54.976;73.248;2023-03-24T06:53:00;100886.56;;;1.51;70.79
63819;BME280;49970;54.976;73.248;2023-03-24T06:55:39;100892.31;;;1.63;70.10
63819;BME280;49970;54.976;73.248;2023-03-24T06:58:07;100885.19;;;1.70;69.98
63819;BME280;49970;54.976;73.248;2023-03-24T07:00:41;100894.66;;;1.74;70.07
63819;BME280;49970;54.976;73.248;2023-03-24T07:03:22;100892.78;;;1.79;70.16
63819;BME280;49970;54.976;73.248;2023-03-24T07:06:10;100891.19;;;1.73;69.66
63819;BME280;49970;54.976;73.248;2023-03-24T07:08:41;100886.81;;;1.74;69.63
63819;BME280;49970;54.976;73.248;2023-03-24T07:11:08;100889.38;;;1.75;69.65
63819;BME280;49970;54.976;73.248;2023-03-24T07:13:48;100882.41;;;1.76;69.43
63819;BME280;49970;54.976;73.248;2023-03-24T07:16:14;100878.78;;;1.82;69.80
63819;BME280;49970;54.976;73.248;2023-03-24T07:18:41;100878.59;;;1.89;69.08
63819;BME280;49970;54.976;73.248;2023-03-24T07:21:08;100873.25;;;1.94;69.52
63819;BME280;49970;54.976;73.248;2023-03-24T07:23:36;100871.41;;;1.97;68.77
63819;BME280;49970;54.976;73.248;2023-03-24T07:26:12;100857.44;;;1.98;68.58
63819;BME280;49970;54.976;73.248;2023-03-24T07:28:48;100867.63;;;2.08;68.89
63819;BME280;49970;54.976;73.248;2023-03-24T07:31:25;100859.78;;;2.09;68.66
63819;BME280;49970;54.976;73.248;2023-03-24T07:34:08;100857.19;;;2.08;68.75
63819;BME280;49970;54.976;73.248;2023-03-24T07:36:36;100856.19;;;2.12;68.07
63819;BME280;49970;54.976;73.248;2023-03-24T07:39:07;100850.97;;;2.12;67.84
63819;BME280;49970;54.976;73.248;2023-03-24T07:41:35;100841.44;;;2.11;67.76
63819;BME280;49970;54.976;73.248;2023-03-24T07:44:07;100845.75;;;2.12;67.60
63819;BME280;49970;54.976;73.248;2023-03-24T07:46:45;100845.63;;;2.16;68.01
63819;BME280;49970;54.976;73.248;2023-03-24T07:49:11;100848.28;;;2.15;67.71
63819;BME280;49970;54.976;73.248;2023-03-24T07:51:37;100834.38;;;2.13;67.84
63819;BME280;49970;54.976;73.248;2023-03-24T07:54:22;100836.94;;;2.16;67.84
63819;BME280;49970;54.976;73.248;2023-03-24T07:56:48;100829.91;;;2.18;67.67
63819;BME280;49970;54.976;73.248;2023-03-24T07:59:22;100841.09;;;2.23;67.48
63819;BME280;49970;54.976;73.248;2023-03-24T08:01:48;100834.97;;;2.24;67.67
63819;BME280;49970;54.976;73.248;2023-03-24T08:04:24;100832.28;;;2.25;67.62
63819;BME280;49970;54.976;73.248;2023-03-24T08:07:00;100838.47;;;2.23;67.07
63819;BME280;49970;54.976;73.248;2023-03-24T08:09:27;100831.53;;;2.22;66.91
63819;BME280;49970;54.976;73.248;2023-03-24T08:11:54;100829.88;;;2.19;66.58
63819;BME280;49970;54.976;73.248;2023-03-24T08:14:20;100827.31;;;2.18;66.28
63819;BME280;49970;54.976;73.248;2023-03-24T08:16:46;100814.25;;;2.18;66.64
63819;BME280;49970;54.976;73.248;2023-03-24T08:19:12;100813.28;;;2.20;66.69
63819;BME280;49970;54.976;73.248;2023-03-24T08:21:39;100807.19;;;2.20;66.06
63819;BME280;49970;54.976;73.248;2023-03-24T08:24:05;100801.16;;;2.18;66.37
63819;BME280;49970;54.976;73.248;2023-03-24T08:26:32;100804.66;;;2.17;66.35
63819;BME280;49970;54.976;73.248;2023-03-24T08:29:00;100805.50;;;2.19;67.05
63819;BME280;49970;54.976;73.248;2023-03-24T08:31:34;100792.38;;;2.20;66.87
63819;BME280;49970;54.976;73.248;2023-03-24T08:34:01;100807.19;;;2.20;67.16
63819;BME280;49970;54.976;73.248;2023-03-24T08:36:29;100790.66;;;2.19;67.22
63819;BME280;49970;54.976;73.248;2023-03-24T08:38:55;100788.84;;;2.21;66.65
63819;BME280;49970;54.976;73.248;2023-03-24T08:41:22;100786.41;;;2.15;66.77
63819;BME280;49970;54.976;73.248;2023-03-24T08:44:09;100783.75;;;2.17;67.16
63819;BME280;49970;54.976;73.248;2023-03-24T08:46:46;100788.09;;;2.18;67.34
63819;BME280;49970;54.976;73.248;2023-03-24T08:49:12;100794.25;;;2.15;67.05
63819;BME280;49970;54.976;73.248;2023-03-24T08:51:39;100790.78;;;2.15;66.82
63819;BME280;49970;54.976;73.248;2023-03-24T08:54:08;100789.03;;;2.15;67.08
63819;BME280;49970;54.976;73.248;2023-03-24T08:56:47;100788.09;;;2.18;67.51
63819;BME280;49970;54.976;73.248;2023-03-24T08:59:13;100779.44;;;2.16;67.05
63819;BME280;49970;54.976;73.248;2023-03-24T09:01:39;100783.72;;;2.18;67.10
63819;BME280;49970;54.976;73.248;2023-03-24T09:04:12;100769.84;;;2.16;66.81
63819;BME280;49970;54.976;73.248;2023-03-24T09:06:47;100766.34;;;2.17;67.83
63819;BME280;49970;54.976;73.248;2023-03-24T09:09:14;100760.22;;;2.18;67.63
63819;BME280;49970;54.976;73.248;2023-03-24T09:11:45;100761.97;;;2.18;67.10
63819;BME280;49970;54.976;73.248;2023-03-24T09:14:19;100749.75;;;2.18;67.43
63819;BME280;49970;54.976;73.248;2023-03-24T09:16:52;100752.41;;;2.17;66.99
63819;BME280;49970;54.976;73.248;2023-03-24T09:19:18;100758.53;;;2.16;67.62
63819;BME280;49970;54.976;73.248;2023-03-24T09:21:47;100750.66;;;2.17;67.72
63819;BME280;49970;54.976;73.248;2023-03-24T09:24:14;100754.13;;;2.18;67.26
63819;BME280;49970;54.976;73.248;2023-03-24T09:26:40;100747.22;;;2.15;67.58
63819;BME280;49970;54.976;73.248;2023-03-24T09:29:06;100744.66;;;2.14;68.09
63819;BME280;49970;54.976;73.248;2023-03-24T09:31:33;100722.16;;;2.08;68.02
63819;BME280;49970;54.976;73.248;2023-03-24T09:33:59;100726.50;;;2.09;67.85
63819;BME280;49970;54.976;73.248;2023-03-24T09:36:26;100723.00;;;2.09;68.34
63819;BME280;49970;54.976;73.248;2023-03-24T09:38:52;100724.00;;;2.05;68.08
63819;BME280;49970;54.976;73.248;2023-03-24T09:41:30;100724.00;;;2.05;68.66
63819;BME280;49970;54.976;73.248;2023-03-24T09:47:12;100719.69;;;2.04;68.82
63819;BME280;49970;54.976;73.248;2023-03-24T09:49:42;100719.59;;;2.07;69.24
63819;BME280;49970;54.976;73.248;2023-03-24T09:52:20;100721.28;;;2.09;69.28
63819;BME280;49970;54.976;73.248;2023-03-24T09:54:55;100704.06;;;2.02;69.05
63819;BME280;49970;54.976;73.248;2023-03-24T09:57:33;100710.09;;;2.04;69.09
63819;BME280;49970;54.976;73.248;2023-03-24T10:00:23;100711.00;;;2.03;69.66
63819;BME280;49970;54.976;73.248;2023-03-24T10:03:58;100704.00;;;2.04;70.12
63819;BME280;49970;54.976;73.248;2023-03-24T10:06:27;100702.25;;;2.04;70.13
63819;BME280;49970;54.976;73.248;2023-03-24T10:12:01;100690.94;;;2.04;70.98
63819;BME280;49970;54.976;73.248;2023-03-24T10:14:47;100700.56;;;2.03;70.92
63819;BME280;49970;54.976;73.248;2023-03-24T10:17:38;100692.72;;;2.03;71.17
63819;BME280;49970;54.976;73.248;2023-03-24T10:23:19;100678.78;;;2.03;71.67
63819;BME280;49970;54.976;73.248;2023-03-24T10:28:58;100670.09;;;2.02;71.78
63819;BME280;49970;54.976;73.248;2023-03-24T10:31:31;100664.91;;;2.00;72.53
63819;BME280;49970;54.976;73.248;2023-03-24T10:33:59;100669.13;;;2.06;72.86
63819;BME280;49970;54.976;73.248;2023-03-24T10:36:26;100666.53;;;2.05;72.90
63819;BME280;49970;54.976;73.248;2023-03-24T10:38:54;100676.81;;;2.11;72.65
63819;BME280;49970;54.976;73.248;2023-03-24T10:41:23;100671.53;;;2.12;72.86
63819;BME280;49970;54.976;73.248;2023-03-24T10:43:52;100662.06;;;2.08;73.07
63819;BME280;49970;54.976;73.248;2023-03-24T10:46:28;100661.03;;;2.14;73.30
63819;BME280;49970;54.976;73.248;2023-03-24T10:49:15;100659.22;;;2.16;73.24
63819;BME280;49970;54.976;73.248;2023-03-24T10:52:01;100655.81;;;2.14;73.75
63819;BME280;49970;54.976;73.248;2023-03-24T10:54:30;100659.22;;;2.16;73.83
63819;BME280;49970;54.976;73.248;2023-03-24T11:00:00;100665.38;;;2.15;73.91
63819;BME280;49970;54.976;73.248;2023-03-24T11:02:29;100662.75;;;2.15;73.88
63819;BME280;49970;54.976;73.248;2023-03-24T11:05:00;100661.91;;;2.14;74.25
63819;BME280;49970;54.976;73.248;2023-03-24T11:07:38;100654.09;;;2.13;74.65
63819;BME280;49970;54.976;73.248;2023-03-24T11:12:37;100646.22;;;2.14;74.53
63819;BME280;49970;54.976;73.248;2023-03-24T11:17:46;100645.38;;;2.14;75.00
63819;BME280;49970;54.976;73.248;2023-03-24T11:20:19;100640.22;;;2.11;75.29
63819;BME280;49970;54.976;73.248;2023-03-24T11:23:19;100627.34;;;2.05;75.57
63819;BME280;49970;54.976;73.248;2023-03-24T11:25:52;100642.94;;;2.08;75.58
63819;BME280;49970;54.976;73.248;2023-03-24T11:28:25;100649.91;;;2.07;75.80
63819;BME280;49970;54.976;73.248;2023-03-24T11:30:53;100643.84;;;2.07;75.88
63819;BME280;49970;54.976;73.248;2023-03-24T11:33:29;100652.63;;;2.04;75.94
63819;BME280;49970;54.976;73.248;2023-03-24T11:35:59;100656.19;;;2.02;76.14
63819;BME280;49970;54.976;73.248;2023-03-24T11:38:32;100653.59;;;2.02;75.91
63819;BME280;49970;54.976;73.248;2023-03-24T11:41:01;100652.75;;;1.99;76.29
63819;BME280;49970;54.976;73.248;2023-03-24T11:43:35;100645.91;;;1.95;76.10
63819;BME280;49970;54.976;73.248;2023-03-24T11:46:09;100648.53;;;1.95;76.43
63819;BME280;49970;54.976;73.248;2023-03-24T11:48:47;100645.19;;;1.90;76.61
63819;BME280;49970;54.976;73.248;2023-03-24T11:51:33;100639.19;;;1.88;76.70
63819;BME280;49970;54.976;73.248;2023-03-24T11:54:04;100631.56;;;1.81;76.79
63819;BME280;49970;54.976;73.248;2023-03-24T11:56:43;100642.78;;;1.84;76.73
63819;BME280;49970;54.976;73.248;2023-03-24T12:02:26;100625.53;;;1.79;76.79
63819;BME280;49970;54.976;73.248;2023-03-24T12:05:17;100629.00;;;1.79;76.92
63819;BME280;49970;54.976;73.248;2023-03-24T12:10:47;100622.16;;;1.75;76.86
63819;BME280;49970;54.976;73.248;2023-03-24T12:13:35;100633.50;;;1.74;76.94
63819;BME280;49970;54.976;73.248;2023-03-24T12:16:08;100632.72;;;1.72;77.10
63819;BME280;49970;54.976;73.248;2023-03-24T12:18:41;100634.53;;;1.68;77.49
63819;BME280;49970;54.976;73.248;2023-03-24T12:23:59;100628.50;;;1.66;77.18
63819;BME280;49970;54.976;73.248;2023-03-24T12:26:32;100626.75;;;1.67;76.97
63819;BME280;49970;54.976;73.248;2023-03-24T12:40:32;100633.44;;;1.75;77.33
63819;BME280;49970;54.976;73.248;2023-03-24T12:45:49;100619.66;;;1.72;77.67
63819;BME280;49970;54.976;73.248;2023-03-24T12:48:50;100614.50;;;1.69;77.58
63819;BME280;49970;54.976;73.248;2023-03-24T12:51:46;100618.16;;;1.63;77.60
63819;BME280;49970;54.976;73.248;2023-03-24T12:54:26;100613.69;;;1.67;77.74
63819;BME280;49970;54.976;73.248;2023-03-24T12:57:03;100606.81;;;1.64;78.08
63819;BME280;49970;54.976;73.248;2023-03-24T12:59:43;100612.94;;;1.63;78.57
63819;BME280;49970;54.976;73.248;2023-03-24T13:02:26;100622.63;;;1.60;78.35
63819;BME280;49970;54.976;73.248;2023-03-24T13:04:59;100622.69;;;1.57;78.33
63819;BME280;49970;54.976;73.248;2023-03-24T13:07:33;100605.41;;;1.53;78.67
63819;BME280;49970;54.976;73.248;2023-03-24T13:10:13;100612.44;;;1.51;78.84
63819;BME280;49970;54.976;73.248;2023-03-24T13:15:41;100604.72;;;1.46;78.82
63819;BME280;49970;54.976;73.248;2023-03-24T13:21:08;100608.31;;;1.42;78.92
63819;BME280;49970;54.976;73.248;2023-03-24T13:28:56;100603.22;;;1.39;79.29
63819;BME280;49970;54.976;73.248;2023-03-24T13:32:01;100606.69;;;1.38;79.41
63819;BME280;49970;54.976;73.248;2023-03-24T13:34:37;100597.22;;;1.35;79.80
63819;BME280;49970;54.976;73.248;2023-03-24T13:37:15;100591.16;;;1.33;79.93
63819;BME280;49970;54.976;73.248;2023-03-24T13:39:45;100605.06;;;1.34;79.61
63819;BME280;49970;54.976;73.248;2023-03-24T13:42:48;100605.13;;;1.32;80.08
63819;BME280;49970;54.976;73.248;2023-03-24T13:45:40;100602.53;;;1.32;80.19
63819;BME280;49970;54.976;73.248;2023-03-24T13:50:46;100597.38;;;1.29;80.37
63819;BME280;49970;54.976;73.248;2023-03-24T13:59:30;100603.72;;;1.20;81.01
63819;BME280;49970;54.976;73.248;2023-03-24T14:05:04;100592.56;;;1.15;80.84
63819;BME280;49970;54.976;73.248;2023-03-24T14:17:56;100601.41;;;1.10;81.22
63819;BME280;49970;54.976;73.248;2023-03-24T14:23:41;100607.50;;;1.10;81.74
63819;BME280;49970;54.976;73.248;2023-03-24T14:28:54;100614.47;;;1.08;81.98
63819;BME280;49970;54.976;73.248;2023-03-24T14:31:29;100611.94;;;1.07;81.58
63819;BME280;49970;54.976;73.248;2023-03-24T14:36:39;100594.66;;;1.03;82.11
63819;BME280;49970;54.976;73.248;2023-03-24T14:41:53;100587.88;;;0.95;82.52
63819;BME280;49970;54.976;73.248;2023-03-24T14:47:31;100591.53;;;0.90;82.57
63819;BME280;49970;54.976;73.248;2023-03-24T14:50:00;100594.19;;;0.88;82.97
63819;BME280;49970;54.976;73.248;2023-03-24T14:52:40;100590.78;;;0.85;83.31
63819;BME280;49970;54.976;73.248;2023-03-24T14:55:13;100589.94;;;0.84;83.04
63819;BME280;49970;54.976;73.248;2023-03-24T14:57:52;100587.34;;;0.83;83.45
63819;BME280;49970;54.976;73.248;2023-03-24T15:00:46;100590.00;;;0.81;83.51
63819;BME280;49970;54.976;73.248;2023-03-24T15:03:30;100579.72;;;0.77;83.23
63819;BME280;49970;54.976;73.248;2023-03-24T15:06:12;100576.31;;;0.73;83.72
63819;BME280;49970;54.976;73.248;2023-03-24T15:08:53;100587.53;;;0.77;83.62
63819;BME280;49970;54.976;73.248;2023-03-24T15:11:30;100587.56;;;0.75;83.67
63819;BME280;49970;54.976;73.248;2023-03-24T15:13:59;100574.75;;;0.66;83.34
63819;BME280;49970;54.976;73.248;2023-03-24T15:16:31;100584.19;;;0.71;83.62
63819;BME280;49970;54.976;73.248;2023-03-24T15:19:25;100588.59;;;0.69;83.96
63819;BME280;49970;54.976;73.248;2023-03-24T15:22:11;100588.63;;;0.68;84.40
63819;BME280;49970;54.976;73.248;2023-03-24T15:24:40;100590.38;;;0.67;84.19
63819;BME280;49970;54.976;73.248;2023-03-24T15:29:34;100587.78;;;0.66;84.74
63819;BME280;49970;54.976;73.248;2023-03-24T15:32:01;100583.50;;;0.65;84.25
63819;BME280;49970;54.976;73.248;2023-03-24T15:37:01;100585.19;;;0.66;84.91
63819;BME280;49970;54.976;73.248;2023-03-24T15:39:35;100575.72;;;0.63;84.61
63819;BME280;49970;54.976;73.248;2023-03-24T15:42:07;100579.19;;;0.64;84.64
63819;BME280;49970;54.976;73.248;2023-03-24T15:44:39;100571.47;;;0.59;84.87
63819;BME280;49970;54.976;73.248;2023-03-24T15:47:23;100575.78;;;0.60;84.65
63819;BME280;49970;54.976;73.248;2023-03-24T15:49:52;100577.38;;;0.66;84.65